sensor_id;sensor_type;location;lat;lon;timestamp;pressure;altitude;pressure_sealevel;temperature;humidity
23229;BME280;11783;50.350;6.576;2023-08-30T00:01:28;95637.25;;;12.40;100.00
23229;BME280;11783;50.350;6.576;2023-08-30T00:03:53;95636.44;;;12.44;100.00
23229;BME280;11783;50.350;6.576;2023-08-30T00:06:19;95638.03;;;12.51;100.00
23229;BME280;11783;50.350;6.576;2023-08-30T00:08:45;95639.91;;;12.55;100.00
23229;BME280;11783;50.350;6.576;2023-08-30T00:11:10;95635.88;;;12.58;100.00
23229;BME280;11783;50.350;6.576;2023-08-30T00:13:36;95632.69;;;12.56;100.00
23229;BME280;11783;50.350;6.576;2023-08-30T00:16:01;95630.56;;;12.58;100.00
23229;BME280;11783;50.350;6.576;2023-08-30T00:18:28;95635.34;;;12.56;100.00
23229;BME280;11783;50.350;6.576;2023-08-30T00:20:53;95635.38;;;12.51;100.00
23229;BME280;11783;50.350;6.576;2023-08-30T00:23:18;95637.53;;;12.49;100.00
23229;BME280;11783;50.350;6.576;2023-08-30T00:25:44;95622.88;;;12.46;100.00
23229;BME280;11783;50.350;6.576;2023-08-30T00:28:09;95620.72;;;12.43;100.00
23229;BME280;11783;50.350;6.576;2023-08-30T00:30:35;95624.69;;;12.46;100.00
23229;BME280;11783;50.350;6.576;2023-08-30T00:33:00;95623.38;;;12.43;100.00
23229;BME280;11783;50.350;6.576;2023-08-30T00:35:25;95626.84;;;12.43;100.00
23229;BME280;11783;50.350;6.576;2023-08-30T00:37:51;95624.97;;;12.44;100.00
23229;BME280;11783;50.350;6.576;2023-08-30T00:40:16;95626.31;;;12.41;100.00
23229;BME280;11783;50.350;6.576;2023-08-30T00:42:41;95629.25;;;12.45;100.00
23229;BME280;11783;50.350;6.576;2023-08-30T00:45:07;95620.97;;;12.52;100.00
23229;BME280;11783;50.350;6.576;2023-08-30T00:47:33;95619.66;;;12.49;100.00
23229;BME280;11783;50.350;6.576;2023-08-30T00:49:59;95619.66;;;12.49;100.00
23229;BME280;11783;50.350;6.576;2023-08-30T00:52:25;95621.25;;;12.45;100.00
23229;BME280;11783;50.350;6.576;2023-08-30T00:54:50;95606.31;;;12.44;100.00
23229;BME280;11783;50.350;6.576;2023-08-30T00:57:16;95617.78;;;12.44;100.00
23229;BME280;11783;50.350;6.576;2023-08-30T00:59:41;95614.84;;;12.41;100.00
23229;BME280;11783;50.350;6.576;2023-08-30T01:02:07;95613.00;;;12.41;100.00
23229;BME280;11783;50.350;6.576;2023-08-30T01:04:32;95617.53;;;12.41;100.00
23229;BME280;11783;50.350;6.576;2023-08-30T01:06:57;95606.59;;;12.37;100.00
23229;BME280;11783;50.350;6.576;2023-08-30T01:09:24;95607.13;;;12.39;100.00
23229;BME280;11783;50.350;6.576;2023-08-30T01:12:10;95603.94;;;12.37;100.00
23229;BME280;11783;50.350;6.576;2023-08-30T01:15:15;95603.16;;;12.37;100.00
23229;BME280;11783;50.350;6.576;2023-08-30T01:17:43;95598.34;;;12.39;100.00
23229;BME280;11783;50.350;6.576;2023-08-30T01:20:10;95594.06;;;12.43;100.00
23229;BME280;11783;50.350;6.576;2023-08-30T01:22:47;95605.25;;;12.45;100.00
23229;BME280;11783;50.350;6.576;2023-08-30T01:25:47;95595.13;;;12.42;100.00
23229;BME280;11783;50.350;6.576;2023-08-30T01:28:16;95593.56;;;12.46;100.00
23229;BME280;11783;50.350;6.576;2023-08-30T01:30:42;95593.78;;;12.44;100.00
23229;BME280;11783;50.350;6.576;2023-08-30T01:33:10;95590.38;;;12.34;100.00
23229;BME280;11783;50.350;6.576;2023-08-30T01:35:37;95591.19;;;12.29;100.00
23229;BME280;11783;50.350;6.576;2023-08-30T01:38:06;95584.50;;;12.32;100.00
23229;BME280;11783;50.350;6.576;2023-08-30T01:40:35;95574.91;;;12.36;100.00
23229;BME280;11783;50.350;6.576;2023-08-30T01:43:02;95570.66;;;12.25;100.00
23229;BME280;11783;50.350;6.576;2023-08-30T01:45:29;95564.53;;;12.19;100.00
23229;BME280;11783;50.350;6.576;2023-08-30T01:47:57;95566.97;;;12.10;100.00
23229;BME280;11783;50.350;6.576;2023-08-30T01:50:22;95559.50;;;12.02;100.00
23229;BME280;11783;50.350;6.576;2023-08-30T01:52:49;95562.69;;;11.99;100.00
23229;BME280;11783;50.350;6.576;2023-08-30T01:55:17;95561.09;;;11.98;100.00
23229;BME280;11783;50.350;6.576;2023-08-30T01:57:45;95564.81;;;12.02;100.00
23229;BME280;11783;50.350;6.576;2023-08-30T02:00:11;95565.88;;;12.06;100.00
23229;BME280;11783;50.350;6.576;2023-08-30T02:02:37;95564.56;;;12.04;100.00
23229;BME280;11783;50.350;6.576;2023-08-30T02:05:02;95561.91;;;11.99;100.00
23229;BME280;11783;50.350;6.576;2023-08-30T02:07:41;95566.44;;;11.98;100.00
23229;BME280;11783;50.350;6.576;2023-08-30T02:10:12;95568.84;;;11.95;100.00
23229;BME280;11783;50.350;6.576;2023-08-30T02:12:48;95558.44;;;11.93;100.00
23229;BME280;11783;50.350;6.576;2023-08-30T02:15:15;95567.78;;;11.91;100.00
23229;BME280;11783;50.350;6.576;2023-08-30T02:17:42;95561.91;;;11.89;100.00
23229;BME280;11783;50.350;6.576;2023-08-30T02:20:09;95562.44;;;11.91;100.00
23229;BME280;11783;50.350;6.576;2023-08-30T02:22:34;95569.09;;;11.88;100.00
23229;BME280;11783;50.350;6.576;2023-08-30T02:25:00;95568.56;;;11.86;100.00
23229;BME280;11783;50.350;6.576;2023-08-30T02:27:32;95566.44;;;11.83;100.00
23229;BME280;11783;50.350;6.576;2023-08-30T02:29:58;95564.03;;;11.81;100.00
23229;BME280;11783;50.350;6.576;2023-08-30T02:32:23;95570.97;;;11.82;100.00
23229;BME280;11783;50.350;6.576;2023-08-30T02:34:50;95573.88;;;11.81;100.00
23229;BME280;11783;50.350;6.576;2023-08-30T02:37:16;95567.75;;;11.75;100.00
23229;BME280;11783;50.350;6.576;2023-08-30T02:39:41;95563.75;;;11.73;100.00
23229;BME280;11783;50.350;6.576;2023-08-30T02:42:07;95561.59;;;11.70;100.00
23229;BME280;11783;50.350;6.576;2023-08-30T02:44:32;95562.41;;;11.70;100.00
23229;BME280;11783;50.350;6.576;2023-08-30T02:46:57;95560.53;;;11.66;100.00
23229;BME280;11783;50.350;6.576;2023-08-30T02:49:23;95557.88;;;11.61;100.00
23229;BME280;11783;50.350;6.576;2023-08-30T02:51:48;95558.16;;;11.59;100.00
23229;BME280;11783;50.350;6.576;2023-08-30T02:54:13;95564.00;;;11.56;100.00
23229;BME280;11783;50.350;6.576;2023-08-30T02:56:40;95550.97;;;11.55;100.00
23229;BME280;11783;50.350;6.576;2023-08-30T02:59:07;95552.81;;;11.49;100.00
23229;BME280;11783;50.350;6.576;2023-08-30T03:01:32;95542.97;;;11.44;100.00
23229;BME280;11783;50.350;6.576;2023-08-30T03:03:58;95544.56;;;11.40;100.00
23229;BME280;11783;50.350;6.576;2023-08-30T03:06:23;95544.00;;;11.28;100.00
23229;BME280;11783;50.350;6.576;2023-08-30T03:08:48;95546.66;;;11.23;100.00
23229;BME280;11783;50.350;6.576;2023-08-30T03:11:14;95545.06;;;11.27;100.00
23229;BME280;11783;50.350;6.576;2023-08-30T03:13:39;95546.66;;;11.28;100.00
23229;BME280;11783;50.350;6.576;2023-08-30T03:16:15;95544.81;;;11.29;100.00
23229;BME280;11783;50.350;6.576;2023-08-30T03:18:41;95549.84;;;11.25;100.00
23229;BME280;11783;50.350;6.576;2023-08-30T03:21:07;95552.25;;;11.16;100.00
23229;BME280;11783;50.350;6.576;2023-08-30T03:23:33;95542.91;;;11.14;100.00
23229;BME280;11783;50.350;6.576;2023-08-30T03:25:59;95543.97;;;11.13;100.00
23229;BME280;11783;50.350;6.576;2023-08-30T03:28:24;95544.50;;;11.15;100.00
23229;BME280;11783;50.350;6.576;2023-08-30T03:30:50;95545.81;;;11.07;100.00
23229;BME280;11783;50.350;6.576;2023-08-30T03:33:15;95543.97;;;11.08;100.00
23229;BME280;11783;50.350;6.576;2023-08-30T03:35:40;95541.31;;;11.08;100.00
23229;BME280;11783;50.350;6.576;2023-08-30T03:38:06;95533.84;;;11.05;100.00
23229;BME280;11783;50.350;6.576;2023-08-30T03:40:32;95540.25;;;11.04;100.00
23229;BME280;11783;50.350;6.576;2023-08-30T03:42:57;95534.34;;;10.97;100.00
23229;BME280;11783;50.350;6.576;2023-08-30T03:45:22;95526.38;;;10.97;100.00
23229;BME280;11783;50.350;6.576;2023-08-30T03:47:48;95526.38;;;10.91;100.00
23229;BME280;11783;50.350;6.576;2023-08-30T03:50:13;95529.03;;;10.86;100.00
23229;BME280;11783;50.350;6.576;2023-08-30T03:52:39;95534.34;;;10.81;100.00
23229;BME280;11783;50.350;6.576;2023-08-30T03:55:04;95525.03;;;10.84;100.00
23229;BME280;11783;50.350;6.576;2023-08-30T03:57:30;95520.78;;;10.83;100.00
23229;BME280;11783;50.350;6.576;2023-08-30T03:59:55;95531.16;;;10.84;100.00
23229;BME280;11783;50.350;6.576;2023-08-30T04:02:20;95527.16;;;10.87;100.00
23229;BME280;11783;50.350;6.576;2023-08-30T04:04:49;95524.78;;;10.90;100.00
23229;BME280;11783;50.350;6.576;2023-08-30T04:07:15;95524.50;;;10.92;100.00
23229;BME280;11783;50.350;6.576;2023-08-30T04:09:40;95518.91;;;10.88;100.00
23229;BME280;11783;50.350;6.576;2023-08-30T04:12:06;95515.72;;;10.86;100.00
23229;BME280;11783;50.350;6.576;2023-08-30T04:14:31;95519.72;;;10.84;100.00
23229;BME280;11783;50.350;6.576;2023-08-30T04:16:57;95517.31;;;10.87;100.00
23229;BME280;11783;50.350;6.576;2023-08-30T04:19:22;95516.25;;;10.88;100.00
23229;BME280;11783;50.350;6.576;2023-08-30T04:21:47;95515.72;;;10.86;100.00
23229;BME280;11783;50.350;6.576;2023-08-30T04:24:14;95515.47;;;10.83;100.00
23229;BME280;11783;50.350;6.576;2023-08-30T04:26:40;95511.47;;;10.85;100.00
23229;BME280;11783;50.350;6.576;2023-08-30T04:29:05;95518.66;;;10.80;100.00
23229;BME280;11783;50.350;6.576;2023-08-30T04:31:31;95514.63;;;10.77;100.00
23229;BME280;11783;50.350;6.576;2023-08-30T04:33:56;95509.84;;;10.74;100.00
23229;BME280;11783;50.350;6.576;2023-08-30T04:36:22;95513.00;;;10.66;100.00
23229;BME280;11783;50.350;6.576;2023-08-30T04:38:47;95515.41;;;10.63;100.00
23229;BME280;11783;50.350;6.576;2023-08-30T04:41:13;95515.09;;;10.59;100.00
23229;BME280;11783;50.350;6.576;2023-08-30T04:43:38;95525.16;;;10.52;100.00
23229;BME280;11783;50.350;6.576;2023-08-30T04:46:03;95521.47;;;10.58;100.00
23229;BME280;11783;50.350;6.576;2023-08-30T04:48:29;95512.75;;;10.63;100.00
23229;BME280;11783;50.350;6.576;2023-08-30T04:50:59;95513.00;;;10.61;100.00
23229;BME280;11783;50.350;6.576;2023-08-30T04:53:24;95516.19;;;10.63;100.00
23229;BME280;11783;50.350;6.576;2023-08-30T04:55:49;95512.69;;;10.57;100.00
23229;BME280;11783;50.350;6.576;2023-08-30T04:58:15;95510.56;;;10.59;100.00
23229;BME280;11783;50.350;6.576;2023-08-30T05:00:40;95512.41;;;10.54;100.00
23229;BME280;11783;50.350;6.576;2023-08-30T05:03:06;95519.88;;;10.57;100.00
23229;BME280;11783;50.350;6.576;2023-08-30T05:05:31;95517.22;;;10.57;100.00
23229;BME280;11783;50.350;6.576;2023-08-30T05:07:56;95516.13;;;10.53;100.00
23229;BME280;11783;50.350;6.576;2023-08-30T05:10:23;95516.09;;;10.43;100.00
23229;BME280;11783;50.350;6.576;2023-08-30T05:12:48;95516.28;;;10.26;100.00
23229;BME280;11783;50.350;6.576;2023-08-30T05:15:17;95514.72;;;10.35;100.00
23229;BME280;11783;50.350;6.576;2023-08-30T05:17:42;95515.53;;;10.36;100.00
23229;BME280;11783;50.350;6.576;2023-08-30T05:20:08;95515.78;;;10.34;100.00
23229;BME280;11783;50.350;6.576;2023-08-30T05:22:34;95506.25;;;10.38;100.00
23229;BME280;11783;50.350;6.576;2023-08-30T05:24:59;95499.66;;;10.46;100.00
23229;BME280;11783;50.350;6.576;2023-08-30T05:27:25;95501.78;;;10.44;100.00
23229;BME280;11783;50.350;6.576;2023-08-30T05:29:51;95499.91;;;10.44;100.00
23229;BME280;11783;50.350;6.576;2023-08-30T05:32:17;95503.38;;;10.45;100.00
23229;BME280;11783;50.350;6.576;2023-08-30T05:34:42;95508.91;;;10.38;100.00
23229;BME280;11783;50.350;6.576;2023-08-30T05:37:07;95497.72;;;10.36;100.00
23229;BME280;11783;50.350;6.576;2023-08-30T05:39:34;95502.41;;;10.19;100.00
23229;BME280;11783;50.350;6.576;2023-08-30T05:42:00;95495.06;;;10.26;100.00
23229;BME280;11783;50.350;6.576;2023-08-30T05:44:25;95493.72;;;10.28;100.00
23229;BME280;11783;50.350;6.576;2023-08-30T05:46:50;95497.97;;;10.29;100.00
23229;BME280;11783;50.350;6.576;2023-08-30T05:49:16;95491.06;;;10.23;100.00
23229;BME280;11783;50.350;6.576;2023-08-30T05:51:41;95493.16;;;10.21;100.00
23229;BME280;11783;50.350;6.576;2023-08-30T05:54:07;95495.50;;;10.18;100.00
23229;BME280;11783;50.350;6.576;2023-08-30T05:56:32;95492.84;;;10.18;100.00
23229;BME280;11783;50.350;6.576;2023-08-30T05:58:58;95492.28;;;10.16;100.00
23229;BME280;11783;50.350;6.576;2023-08-30T06:01:23;95489.66;;;10.16;100.00
23229;BME280;11783;50.350;6.576;2023-08-30T06:03:50;95493.34;;;10.15;100.00
23229;BME280;11783;50.350;6.576;2023-08-30T06:06:15;95497.59;;;10.11;100.00
23229;BME280;11783;50.350;6.576;2023-08-30T06:08:41;95492.53;;;10.09;100.00
23229;BME280;11783;50.350;6.576;2023-08-30T06:11:07;95494.69;;;10.12;100.00
23229;BME280;11783;50.350;6.576;2023-08-30T06:13:32;95489.66;;;10.16;100.00
23229;BME280;11783;50.350;6.576;2023-08-30T06:15:58;95485.41;;;10.20;100.00
23229;BME280;11783;50.350;6.576;2023-08-30T06:18:23;95486.19;;;10.15;100.00
23229;BME280;11783;50.350;6.576;2023-08-30T06:20:49;95482.75;;;10.15;100.00
23229;BME280;11783;50.350;6.576;2023-08-30T06:23:14;95478.75;;;10.17;100.00
23229;BME280;11783;50.350;6.576;2023-08-30T06:25:43;95480.88;;;10.15;100.00
23229;BME280;11783;50.350;6.576;2023-08-30T06:28:08;95468.91;;;10.13;100.00
23229;BME280;11783;50.350;6.576;2023-08-30T06:30:34;95466.53;;;10.11;100.00
23229;BME280;11783;50.350;6.576;2023-08-30T06:32:59;95464.13;;;10.10;100.00
23229;BME280;11783;50.350;6.576;2023-08-30T06:35:25;95466.00;;;10.14;100.00
23229;BME280;11783;50.350;6.576;2023-08-30T06:37:51;95461.22;;;10.16;100.00
23229;BME280;11783;50.350;6.576;2023-08-30T06:40:17;95453.06;;;10.23;100.00
23229;BME280;11783;50.350;6.576;2023-08-30T06:42:43;95450.16;;;10.24;100.00
23229;BME280;11783;50.350;6.576;2023-08-30T06:45:08;95436.38;;;10.32;100.00
23229;BME280;11783;50.350;6.576;2023-08-30T06:47:34;95443.81;;;10.41;100.00
23229;BME280;11783;50.350;6.576;2023-08-30T06:50:00;95447.03;;;10.43;100.00
23229;BME280;11783;50.350;6.576;2023-08-30T06:52:25;95451.25;;;10.39;100.00
23229;BME280;11783;50.350;6.576;2023-08-30T06:54:51;95443.28;;;10.34;100.00
23229;BME280;11783;50.350;6.576;2023-08-30T06:57:16;95445.94;;;10.39;100.00
23229;BME280;11783;50.350;6.576;2023-08-30T06:59:41;95444.66;;;10.41;100.00
23229;BME280;11783;50.350;6.576;2023-08-30T07:02:07;95449.13;;;10.41;100.00
23229;BME280;11783;50.350;6.576;2023-08-30T07:04:33;95451.53;;;10.37;100.00
23229;BME280;11783;50.350;6.576;2023-08-30T07:06:58;95444.38;;;10.43;100.00
23229;BME280;11783;50.350;6.576;2023-08-30T07:09:24;95446.53;;;10.46;100.00
23229;BME280;11783;50.350;6.576;2023-08-30T07:11:56;95442.53;;;10.53;100.00
23229;BME280;11783;50.350;6.576;2023-08-30T07:14:22;95435.41;;;10.64;100.00
23229;BME280;11783;50.350;6.576;2023-08-30T07:16:47;95435.94;;;10.71;100.00
23229;BME280;11783;50.350;6.576;2023-08-30T07:19:17;95427.22;;;10.81;100.00
23229;BME280;11783;50.350;6.576;2023-08-30T07:21:43;95429.88;;;10.86;100.00
23229;BME280;11783;50.350;6.576;2023-08-30T07:24:09;95432.00;;;10.94;100.00
23229;BME280;11783;50.350;6.576;2023-08-30T07:26:35;95436.00;;;11.02;100.00
23229;BME280;11783;50.350;6.576;2023-08-30T07:29:00;95427.50;;;11.10;100.00
23229;BME280;11783;50.350;6.576;2023-08-30T07:31:25;95432.28;;;11.13;100.00
23229;BME280;11783;50.350;6.576;2023-08-30T07:33:51;95431.22;;;11.14;100.00
23229;BME280;11783;50.350;6.576;2023-08-30T07:36:16;95420.84;;;11.22;100.00
23229;BME280;11783;50.350;6.576;2023-08-30T07:38:42;95429.63;;;11.18;100.00
23229;BME280;11783;50.350;6.576;2023-08-30T07:41:07;95429.59;;;11.33;100.00
23229;BME280;11783;50.350;6.576;2023-08-30T07:43:32;95430.66;;;11.52;100.00
23229;BME280;11783;50.350;6.576;2023-08-30T07:45:58;95423.72;;;11.67;100.00
23229;BME280;11783;50.350;6.576;2023-08-30T07:48:24;95423.19;;;11.90;100.00
23229;BME280;11783;50.350;6.576;2023-08-30T07:50:50;95433.75;;;12.16;100.00
23229;BME280;11783;50.350;6.576;2023-08-30T07:53:15;95420.94;;;12.28;100.00
23229;BME280;11783;50.350;6.576;2023-08-30T07:55:41;95425.03;;;12.59;100.00
23229;BME280;11783;50.350;6.576;2023-08-30T07:58:06;95427.31;;;12.81;100.00
23229;BME280;11783;50.350;6.576;2023-08-30T08:00:34;95431.94;;;13.10;100.00
23229;BME280;11783;50.350;6.576;2023-08-30T08:02:59;95434.94;;;13.37;100.00
23229;BME280;11783;50.350;6.576;2023-08-30T08:05:25;95437.69;;;13.61;100.00
23229;BME280;11783;50.350;6.576;2023-08-30T08:07:51;95435.41;;;13.78;100.00
23229;BME280;11783;50.350;6.576;2023-08-30T08:10:17;95450.69;;;13.97;100.00
23229;BME280;11783;50.350;6.576;2023-08-30T08:12:43;95449.06;;;14.01;100.00
23229;BME280;11783;50.350;6.576;2023-08-30T08:15:08;95435.75;;;14.19;100.00
23229;BME280;11783;50.350;6.576;2023-08-30T08:17:34;95431.59;;;14.32;100.00
23229;BME280;11783;50.350;6.576;2023-08-30T08:19:59;95427.75;;;14.43;100.00
23229;BME280;11783;50.350;6.576;2023-08-30T08:22:24;95439.16;;;14.49;100.00
23229;BME280;11783;50.350;6.576;2023-08-30T08:24:50;95434.72;;;14.63;100.00
23229;BME280;11783;50.350;6.576;2023-08-30T08:27:17;95445.06;;;14.70;100.00
23229;BME280;11783;50.350;6.576;2023-08-30T08:29:43;95437.56;;;14.72;100.00
23229;BME280;11783;50.350;6.576;2023-08-30T08:32:09;95425.09;;;14.81;100.00
23229;BME280;11783;50.350;6.576;2023-08-30T08:34:34;95424.97;;;14.91;100.00
23229;BME280;11783;50.350;6.576;2023-08-30T08:36:59;95419.47;;;15.01;100.00
23229;BME280;11783;50.350;6.576;2023-08-30T08:39:25;95421.22;;;15.11;100.00
23229;BME280;11783;50.350;6.576;2023-08-30T08:41:51;95410.19;;;15.31;100.00
23229;BME280;11783;50.350;6.576;2023-08-30T08:44:18;95417.56;;;15.53;100.00
23229;BME280;11783;50.350;6.576;2023-08-30T08:46:46;95408.88;;;15.61;100.00
23229;BME280;11783;50.350;6.576;2023-08-30T08:49:13;95414.31;;;15.89;99.16
23229;BME280;11783;50.350;6.576;2023-08-30T08:51:40;95409.66;;;16.08;97.42
23229;BME280;11783;50.350;6.576;2023-08-30T08:54:05;95422.78;;;16.23;96.19
23229;BME280;11783;50.350;6.576;2023-08-30T08:56:32;95409.75;;;16.30;96.44
23229;BME280;11783;50.350;6.576;2023-08-30T08:58:59;95405.47;;;16.29;93.43
23229;BME280;11783;50.350;6.576;2023-08-30T09:01:25;95406.38;;;16.39;95.04
23229;BME280;11783;50.350;6.576;2023-08-30T09:03:51;95398.41;;;16.61;94.57
23229;BME280;11783;50.350;6.576;2023-08-30T09:06:18;95426.72;;;16.67;92.79
23229;BME280;11783;50.350;6.576;2023-08-30T09:08:43;95414.91;;;16.68;90.75
23229;BME280;11783;50.350;6.576;2023-08-30T09:11:09;95416.59;;;16.50;89.14
23229;BME280;11783;50.350;6.576;2023-08-30T09:13:34;95415.09;;;16.58;90.76
23229;BME280;11783;50.350;6.576;2023-08-30T09:16:00;95419.97;;;16.56;87.32
23229;BME280;11783;50.350;6.576;2023-08-30T09:18:25;95417.50;;;16.32;88.98
23229;BME280;11783;50.350;6.576;2023-08-30T09:21:08;95411.53;;;16.35;88.15
23229;BME280;11783;50.350;6.576;2023-08-30T09:23:33;95426.63;;;16.45;91.24
23229;BME280;11783;50.350;6.576;2023-08-30T09:25:59;95407.66;;;16.55;89.69
23229;BME280;11783;50.350;6.576;2023-08-30T09:28:25;95398.53;;;16.56;87.24
23229;BME280;11783;50.350;6.576;2023-08-30T09:30:51;95393.16;;;16.56;87.72
23229;BME280;11783;50.350;6.576;2023-08-30T09:33:21;95402.19;;;16.60;85.77
23229;BME280;11783;50.350;6.576;2023-08-30T09:35:47;95401.69;;;16.58;83.47
23229;BME280;11783;50.350;6.576;2023-08-30T09:38:18;95392.19;;;16.38;81.72
23229;BME280;11783;50.350;6.576;2023-08-30T09:40:44;95381.34;;;16.43;85.64
23229;BME280;11783;50.350;6.576;2023-08-30T09:43:11;95395.31;;;16.54;81.74
23229;BME280;11783;50.350;6.576;2023-08-30T09:45:37;95398.03;;;16.40;80.41
23229;BME280;11783;50.350;6.576;2023-08-30T09:48:04;95390.06;;;16.49;82.20
23229;BME280;11783;50.350;6.576;2023-08-30T09:50:33;95392.63;;;16.54;84.21
23229;BME280;11783;50.350;6.576;2023-08-30T09:53:01;95395.13;;;16.50;82.97
23229;BME280;11783;50.350;6.576;2023-08-30T09:55:31;95392.75;;;16.62;83.73
23229;BME280;11783;50.350;6.576;2023-08-30T09:57:57;95399.69;;;16.63;80.88
23229;BME280;11783;50.350;6.576;2023-08-30T10:00:23;95405.97;;;16.59;84.67
23229;BME280;11783;50.350;6.576;2023-08-30T10:02:48;95407.47;;;16.38;84.98
23229;BME280;11783;50.350;6.576;2023-08-30T10:05:14;95404.38;;;16.44;84.44
23229;BME280;11783;50.350;6.576;2023-08-30T10:07:41;95390.25;;;16.52;87.49
23229;BME280;11783;50.350;6.576;2023-08-30T10:10:09;95387.56;;;16.66;86.57
23229;BME280;11783;50.350;6.576;2023-08-30T10:12:35;95392.59;;;16.95;86.22
23229;BME280;11783;50.350;6.576;2023-08-30T10:15:01;95388.94;;;17.13;83.98
23229;BME280;11783;50.350;6.576;2023-08-30T10:17:28;95378.19;;;17.36;81.28
23229;BME280;11783;50.350;6.576;2023-08-30T10:19:55;95372.38;;;17.42;83.56
23229;BME280;11783;50.350;6.576;2023-08-30T10:22:22;95370.28;;;17.62;79.55
23229;BME280;11783;50.350;6.576;2023-08-30T10:25:18;95381.44;;;17.69;81.20
23229;BME280;11783;50.350;6.576;2023-08-30T10:27:46;95373.63;;;17.90;77.88
23229;BME280;11783;50.350;6.576;2023-08-30T10:30:14;95364.34;;;18.04;78.83
23229;BME280;11783;50.350;6.576;2023-08-30T10:32:44;95367.63;;;18.01;76.60
23229;BME280;11783;50.350;6.576;2023-08-30T10:35:15;95369.66;;;17.87;79.68
23229;BME280;11783;50.350;6.576;2023-08-30T10:37:42;95368.91;;;17.95;82.04
23229;BME280;11783;50.350;6.576;2023-08-30T10:40:08;95362.63;;;18.08;79.24
23229;BME280;11783;50.350;6.576;2023-08-30T10:42:34;95370.13;;;18.29;80.85
23229;BME280;11783;50.350;6.576;2023-08-30T10:45:03;95365.25;;;18.48;76.84
23229;BME280;11783;50.350;6.576;2023-08-30T10:47:30;95369.38;;;18.54;77.94
23229;BME280;11783;50.350;6.576;2023-08-30T10:50:00;95366.53;;;18.59;76.15
23229;BME280;11783;50.350;6.576;2023-08-30T10:52:29;95363.50;;;18.43;75.55
23229;BME280;11783;50.350;6.576;2023-08-30T10:55:07;95360.16;;;18.29;75.14
23229;BME280;11783;50.350;6.576;2023-08-30T10:57:33;95361.41;;;18.32;75.93
23229;BME280;11783;50.350;6.576;2023-08-30T11:00:10;95366.81;;;18.32;74.46
23229;BME280;11783;50.350;6.576;2023-08-30T11:02:37;95362.16;;;18.15;78.39
23229;BME280;11783;50.350;6.576;2023-08-30T11:05:05;95355.63;;;17.99;76.66
23229;BME280;11783;50.350;6.576;2023-08-30T11:07:31;95354.69;;;18.03;78.95
23229;BME280;11783;50.350;6.576;2023-08-30T11:09:57;95346.19;;;18.19;79.37
23229;BME280;11783;50.350;6.576;2023-08-30T11:12:23;95341.47;;;18.24;79.09
23229;BME280;11783;50.350;6.576;2023-08-30T11:14:49;95351.63;;;18.36;78.35
23229;BME280;11783;50.350;6.576;2023-08-30T11:17:18;95354.47;;;18.31;74.91
23229;BME280;11783;50.350;6.576;2023-08-30T11:19:44;95358.34;;;18.07;76.46
23229;BME280;11783;50.350;6.576;2023-08-30T11:22:10;95377.81;;;18.04;77.39
23229;BME280;11783;50.350;6.576;2023-08-30T11:24:35;95363.50;;;17.95;78.26
23229;BME280;11783;50.350;6.576;2023-08-30T11:27:01;95358.22;;;17.81;78.19
23229;BME280;11783;50.350;6.576;2023-08-30T11:29:27;95354.25;;;17.70;80.34
23229;BME280;11783;50.350;6.576;2023-08-30T11:31:52;95365.50;;;17.50;81.63
23229;BME280;11783;50.350;6.576;2023-08-30T11:34:21;95367.19;;;17.46;85.38
23229;BME280;11783;50.350;6.576;2023-08-30T11:36:47;95360.44;;;17.48;85.85
23229;BME280;11783;50.350;6.576;2023-08-30T11:39:15;95357.38;;;17.41;89.69
23229;BME280;11783;50.350;6.576;2023-08-30T11:41:41;95357.75;;;17.26;91.11
23229;BME280;11783;50.350;6.576;2023-08-30T11:44:07;95352.13;;;16.91;97.45
23229;BME280;11783;50.350;6.576;2023-08-30T11:46:33;95354.25;;;16.81;100.00
23229;BME280;11783;50.350;6.576;2023-08-30T11:48:58;95360.13;;;16.83;96.75
23229;BME280;11783;50.350;6.576;2023-08-30T11:51:24;95347.75;;;16.95;96.83
23229;BME280;11783;50.350;6.576;2023-08-30T11:53:50;95351.47;;;17.08;97.16
23229;BME280;11783;50.350;6.576;2023-08-30T11:56:16;95338.81;;;17.09;95.69
23229;BME280;11783;50.350;6.576;2023-08-30T11:58:42;95340.72;;;17.08;97.64
23229;BME280;11783;50.350;6.576;2023-08-30T12:01:08;95337.94;;;17.13;99.22
23229;BME280;11783;50.350;6.576;2023-08-30T12:03:34;95335.25;;;17.13;96.83
23229;BME280;11783;50.350;6.576;2023-08-30T12:05:59;95332.13;;;17.20;99.19
23229;BME280;11783;50.350;6.576;2023-08-30T12:08:30;95323.41;;;17.14;97.07
23229;BME280;11783;50.350;6.576;2023-08-30T12:10:56;95323.69;;;17.35;99.21
23229;BME280;11783;50.350;6.576;2023-08-30T12:13:29;95327.16;;;17.36;98.28
23229;BME280;11783;50.350;6.576;2023-08-30T12:15:56;95318.53;;;17.47;95.60
23229;BME280;11783;50.350;6.576;2023-08-30T12:18:22;95322.41;;;17.64;97.32
23229;BME280;11783;50.350;6.576;2023-08-30T12:20:58;95326.94;;;17.54;91.47
23229;BME280;11783;50.350;6.576;2023-08-30T12:23:24;95335.56;;;17.43;91.35
23229;BME280;11783;50.350;6.576;2023-08-30T12:26:07;95334.78;;;17.42;91.34
23229;BME280;11783;50.350;6.576;2023-08-30T12:28:37;95332.47;;;17.27;96.96
23229;BME280;11783;50.350;6.576;2023-08-30T12:31:03;95332.28;;;17.23;96.31
23229;BME280;11783;50.350;6.576;2023-08-30T12:33:29;95333.09;;;17.24;96.55
23229;BME280;11783;50.350;6.576;2023-08-30T12:35:55;95339.38;;;17.19;97.24
23229;BME280;11783;50.350;6.576;2023-08-30T12:38:22;95338.91;;;17.17;95.90
23229;BME280;11783;50.350;6.576;2023-08-30T12:40:49;95337.81;;;16.96;100.00
23229;BME280;11783;50.350;6.576;2023-08-30T12:43:16;95346.03;;;16.63;100.00
23229;BME280;11783;50.350;6.576;2023-08-30T12:45:42;95358.25;;;16.70;100.00
23229;BME280;11783;50.350;6.576;2023-08-30T12:48:08;95362.34;;;16.53;100.00
23229;BME280;11783;50.350;6.576;2023-08-30T12:50:38;95352.81;;;16.47;100.00